Gran Canaria > ESTACION METEOROLÓGICA La Aldea de San Nicolás

DATOS ACTUALES Online

Ultima actulizacion 1 h 9 minutos

21.3 ºC

Temperatura

61

Humedad (%)

1017.8

Presión (mb)

0

Precipitación (mm)

4 NO

Viento (Km/h)

DATOS DIARIOS

Temperatura últimas 24 horas (ºC)

Humedad últimas 24 horas (%)

Presión atmosférica últimas 24 horas (mb)

Precipitaciones últimas 23 horas (mm)

Viento últimas 24 horas (Km/h)

Hora Temperatura (°C) ºC Precipitación (mm) mm Presión (mb) mb Humedad (%) % Viento (Km/h) km/h
29 - 01:00 19.9 0 1018 68 4.6 O
29 - 02:00 19.6 0 1018 69 4.9 O
29 - 03:00 19.8 0 1018 62 5.7 NO
29 - 04:00 19.7 0 1017 63 4.4 NO
29 - 05:00 19.2 0 1017 65 3.1 O
29 - 06:00 17.3 0 1017 70 2.8 SO
29 - 07:00 16.4 0 1017 74 2.7 SO
29 - 08:00 16.6 0 1018 74 1.1 SO
29 - 09:00 21.3 0 1018 56 2.1 SO
29 - 10:00 22.5 0 1018 53 2.3 N
29 - 11:00 22.9 0 1018 53 3.4 NW
29 - 12:00 23.7 0 1018 54 4.4 N
29 - 13:00 24.4 0 1018 52 4.7 N
29 - 14:00 25.9 0 1017 49 3.7 NO
29 - 15:00 25.9 0 1017 51 3.6 NO
29 - 16:00 24.2 0 1017 55 5.5 N
29 - 17:00 25.3 0 1017 51 4.8 NO
29 - 18:00 24 0 1016 51 5.1 N
29 - 19:00 23.7 0 1016 50 2.5 O
29 - 20:00 22.8 0 1017 53 3.4 N
29 - 21:00 22.1 0 1017 59 3.2 O
29 - 22:00 21.8 0 1017 61 4.2 O
29 - 23:00 21.4 0 1018 63 1.7 SO
30 - 00:00 21.3 0 1018 61 4 NO
30 - 01:00
Apalmet utiliza cookies propias y de terceros para mejorar la usabilidad y la experiencia web. Política de cookies.